Terminal Aerodrome Forecast
Issued by NWS Wilmington, OH

Current Version | Previous Version | Graphics & Text | Print | Product List | Glossary On
Versions: 1 2 3 4 5 6 7 8 9 10 11 12 13 14 15 16 17 18 19 20 21 22 23 24 25 26 27 28 29 30 31
242
FTUS41 KILN 301003 AAA
TAFCMH
TAF AMD
KCMH 301003Z 3010/0106 16009KT P6SM SCT008 OVC090
      TEMPO 3010/3013 BKN008
     FM301600 21008KT P6SM VCSH BKN025
     FM301900 24010G20KT P6SM BKN035
     FM010000 25010KT P6SM SCT040
     FM010500 26009KT P6SM BKN040=

USA.gov is the U.S. government's official web portal to all federal, state and local government web resources and services.